Time;durP1;ratioP1;P1;durP2;ratioP2;P2;SDS_P1;SDS_P2;PMS_P1;PMS_P2;Temp;Humidity;BMP_temperature;BMP_pressure;BME280_temperature;BME280_humidity;BME280_pressure;Samples;Min_cycle;Max_cycle;Signal;HPM_P1;HPM_P2
2023/07/11 00:00:48;;;;;;;5.35;0.82;;;18.50;99.90;;;;;;5012491;28;20174;-51
2023/07/11 00:03:14;;;;;;;2.25;0.90;;;18.60;99.90;;;;;;5011933;28;20116;-50
2023/07/11 00:05:40;;;;;;;1.48;0.77;;;18.60;99.90;;;;;;5012333;28;20149;-49
2023/07/11 00:08:06;;;;;;;2.35;0.90;;;18.60;99.90;;;;;;5011967;28;20030;-50
2023/07/11 00:10:32;;;;;;;2.38;0.90;;;18.70;99.90;;;;;;5012034;28;20029;-49
2023/07/11 00:12:57;;;;;;;3.50;1.00;;;18.70;99.90;;;;;;5011816;28;20054;-50
2023/07/11 00:15:23;;;;;;;1.35;0.70;;;18.80;99.90;;;;;;5011946;28;20014;-50
2023/07/11 00:17:50;;;;;;;1.55;0.82;;;18.80;99.90;;;;;;5010767;28;20101;-52
2023/07/11 00:20:16;;;;;;;3.55;0.90;;;18.80;99.90;;;;;;5011794;28;20414;-52
2023/07/11 00:22:44;;;;;;;3.38;1.30;;;18.90;99.90;;;;;;5011809;28;20045;-51
2023/07/11 00:25:11;;;;;;;6.53;1.20;;;18.90;99.90;;;;;;5011468;28;20022;-52
2023/07/11 00:27:37;;;;;;;2.63;1.10;;;19.00;99.90;;;;;;5012014;28;20046;-50
2023/07/11 00:30:05;;;;;;;4.72;0.82;;;19.10;99.90;;;;;;5011701;28;20084;-52
2023/07/11 00:32:30;;;;;;;4.13;1.25;;;19.10;99.90;;;;;;5011458;28;20025;-55
2023/07/11 00:34:56;;;;;;;3.97;1.30;;;19.20;99.90;;;;;;5011625;28;20025;-50
2023/07/11 00:37:22;;;;;;;2.72;0.80;;;19.30;99.90;;;;;;5011658;28;20026;-53
2023/07/11 00:39:48;;;;;;;1.50;0.90;;;19.30;99.90;;;;;;5011341;28;20018;-54
2023/07/11 00:42:13;;;;;;;6.45;1.13;;;19.40;99.90;;;;;;5011438;28;20036;-53
2023/07/11 00:44:56;;;;;;;4.03;1.08;;;19.40;99.90;;;;;;5010954;28;20034;-53
2023/07/11 00:47:25;;;;;;;3.10;0.80;;;19.50;99.90;;;;;;5011517;28;20080;-54
2023/07/11 00:49:56;;;;;;;1.40;0.70;;;19.50;99.90;;;;;;5011313;28;20482;-57
2023/07/11 00:52:22;;;;;;;4.22;1.23;;;19.50;99.90;;;;;;5011612;28;20069;-54
2023/07/11 00:54:54;;;;;;;3.88;1.20;;;19.60;99.90;;;;;;5011292;28;20026;-52
2023/07/11 00:57:22;;;;;;;2.75;0.88;;;19.50;99.90;;;;;;5011191;28;20029;-58
2023/07/11 00:59:48;;;;;;;4.87;1.10;;;19.50;99.90;;;;;;5011188;28;20029;-54
2023/07/11 01:02:22;;;;;;;2.00;0.80;;;19.50;99.90;;;;;;5011024;28;20414;-53
2023/07/11 01:04:48;;;;;;;2.03;0.90;;;19.50;99.90;;;;;;5011000;28;20108;-57
2023/07/11 01:07:18;;;;;;;2.22;1.02;;;19.50;99.90;;;;;;5011345;28;20104;-52
2023/07/11 01:09:44;;;;;;;4.65;0.95;;;19.50;99.90;;;;;;5010913;28;20483;-56
2023/07/11 01:12:12;;;;;;;5.55;1.13;;;19.50;99.90;;;;;;5010766;28;20064;-53
2023/07/11 01:14:43;;;;;;;2.22;0.90;;;19.50;99.90;;;;;;5011152;28;20441;-54
2023/07/11 01:17:21;;;;;;;2.65;1.08;;;19.50;99.90;;;;;;5010858;28;20029;-57
2023/07/11 01:19:46;;;;;;;7.82;1.65;;;19.50;99.90;;;;;;5011065;28;20018;-57
2023/07/11 01:22:12;;;;;;;1.13;0.60;;;19.40;99.90;;;;;;5010677;28;20083;-58
2023/07/11 01:24:37;;;;;;;2.13;0.90;;;19.40;99.90;;;;;;5010720;28;20041;-53
2023/07/11 01:27:04;;;;;;;2.78;0.80;;;19.40;99.90;;;;;;5010608;28;20056;-56
2023/07/11 01:29:29;;;;;;;3.08;1.00;;;19.40;99.90;;;;;;5010753;28;20057;-50
2023/07/11 01:31:55;;;;;;;2.63;0.95;;;19.40;99.90;;;;;;5010926;28;20495;-50
2023/07/11 01:34:20;;;;;;;3.85;1.10;;;19.40;99.90;;;;;;5010604;28;20220;-55
2023/07/11 01:36:46;;;;;;;2.85;0.93;;;19.40;99.90;;;;;;5010826;28;20030;-54
2023/07/11 01:39:12;;;;;;;2.25;0.95;;;19.40;99.90;;;;;;5010457;28;20033;-55
2023/07/11 01:41:37;;;;;;;4.10;1.20;;;19.40;99.90;;;;;;5010436;28;20487;-54
2023/07/11 01:44:03;;;;;;;4.53;0.90;;;19.40;99.90;;;;;;5010457;28;20042;-51
2023/07/11 01:46:29;;;;;;;3.92;1.05;;;19.30;99.90;;;;;;5010328;28;20037;-52
2023/07/11 01:48:54;;;;;;;6.68;1.13;;;19.30;99.90;;;;;;5010818;28;20080;-53
2023/07/11 01:51:20;;;;;;;2.22;0.90;;;19.30;99.90;;;;;;5010362;28;20113;-54
2023/07/11 01:53:46;;;;;;;2.55;1.05;;;19.20;99.90;;;;;;5010640;28;20022;-54
2023/07/11 01:56:11;;;;;;;4.28;0.98;;;19.20;99.90;;;;;;5010294;28;20399;-52
2023/07/11 01:58:38;;;;;;;2.53;0.75;;;19.10;99.90;;;;;;5014456;28;20030;-52
2023/07/11 02:01:03;;;;;;;3.13;1.27;;;19.10;99.90;;;;;;5014521;28;20113;-53
2023/07/11 02:03:29;;;;;;;5.15;1.00;;;19.10;99.90;;;;;;5014246;28;20152;-52
2023/07/11 02:05:55;;;;;;;2.28;0.88;;;19.10;99.90;;;;;;5014482;28;20025;-55
2023/07/11 02:08:21;;;;;;;2.97;0.85;;;19.10;99.90;;;;;;5012871;28;20038;-54
2023/07/11 02:10:46;;;;;;;2.10;1.08;;;19.10;99.90;;;;;;5014217;28;20586;-55
2023/07/11 02:13:12;;;;;;;2.05;1.08;;;19.10;99.90;;;;;;5013702;28;20084;-52
2023/07/11 02:15:38;;;;;;;6.15;1.35;;;19.10;99.90;;;;;;5013183;28;20049;-51
2023/07/11 02:18:03;;;;;;;4.40;1.10;;;19.10;99.90;;;;;;5014216;28;20061;-52
2023/07/11 02:20:29;;;;;;;5.30;1.20;;;19.20;99.90;;;;;;5014160;28;20364;-52
2023/07/11 02:22:55;;;;;;;1.92;1.00;;;19.10;99.90;;;;;;5014077;28;20034;-56
2023/07/11 02:25:20;;;;;;;3.25;0.90;;;19.10;99.90;;;;;;5013685;28;20026;-51
2023/07/11 02:27:46;;;;;;;2.22;0.95;;;19.20;99.90;;;;;;5013980;28;20414;-55
2023/07/11 02:30:12;;;;;;;5.47;1.00;;;19.20;99.90;;;;;;5013847;28;20045;-56
2023/07/11 02:32:39;;;;;;;2.42;0.90;;;19.20;99.90;;;;;;5013919;28;20092;-57
2023/07/11 02:35:05;;;;;;;2.92;0.85;;;19.10;99.90;;;;;;5014100;28;20037;-56
2023/07/11 02:37:31;;;;;;;6.93;1.67;;;19.20;99.90;;;;;;5013699;28;20041;-49
2023/07/11 02:39:56;;;;;;;5.30;1.40;;;19.10;99.90;;;;;;5013870;28;20081;-52
2023/07/11 02:42:22;;;;;;;6.38;1.58;;;19.20;99.90;;;;;;5013570;28;20038;-56
2023/07/11 02:44:48;;;;;;;1.50;0.80;;;19.10;99.90;;;;;;5013946;28;20084;-52
2023/07/11 02:47:13;;;;;;;2.17;1.10;;;19.10;99.90;;;;;;5013762;28;20057;-54
2023/07/11 02:49:40;;;;;;;6.00;1.08;;;19.10;99.90;;;;;;5013422;28;20141;-51
2023/07/11 02:52:07;;;;;;;3.55;1.05;;;19.10;99.90;;;;;;5013787;28;20033;-53
2023/07/11 02:54:36;;;;;;;4.25;1.10;;;19.10;99.90;;;;;;5013361;28;20054;-52
2023/07/11 02:57:03;;;;;;;6.30;1.25;;;19.10;99.90;;;;;;5013204;28;20014;-51
2023/07/11 02:59:29;;;;;;;2.60;1.10;;;19.10;99.90;;;;;;5013456;28;20025;-49
2023/07/11 03:01:56;;;;;;;5.03;1.27;;;19.10;99.90;;;;;;5013169;28;20088;-53
2023/07/11 03:04:22;;;;;;;3.75;0.80;;;19.10;99.90;;;;;;5011703;28;20457;-57
2023/07/11 03:06:47;;;;;;;6.30;1.15;;;20.70;99.90;;;;;;5012966;28;20013;-56
2023/07/11 03:09:13;;;;;;;4.25;1.20;;;19.10;99.90;;;;;;5012940;28;20030;-53
2023/07/11 03:11:39;;;;;;;6.88;1.50;;;19.40;99.90;;;;;;5012741;28;20541;-53
2023/07/11 03:14:05;;;;;;;5.97;1.15;;;19.10;99.90;;;;;;5012915;28;20064;-53
2023/07/11 03:16:30;;;;;;;2.13;1.08;;;19.10;99.90;;;;;;5008384;28;20046;-54
2023/07/11 03:18:56;;;;;;;4.55;1.20;;;19.10;99.90;;;;;;5012442;28;20530;-50
2023/07/11 03:21:21;;;;;;;3.88;1.17;;;19.10;99.90;;;;;;5013066;28;20034;-57
2023/07/11 03:23:47;;;;;;;2.45;1.08;;;19.00;99.90;;;;;;5012810;28;20479;-54
2023/07/11 03:26:12;;;;;;;4.57;1.05;;;19.10;99.90;;;;;;5012453;28;20029;-55
2023/07/11 03:28:38;;;;;;;5.70;1.40;;;19.00;99.90;;;;;;5012721;28;20026;-56
2023/07/11 03:31:04;;;;;;;2.10;1.00;;;19.00;99.90;;;;;;5012685;28;20133;-52
2023/07/11 03:33:29;;;;;;;7.95;1.50;;;19.00;99.90;;;;;;5012664;28;20022;-53
2023/07/11 03:35:55;;;;;;;6.60;1.00;;;19.00;99.90;;;;;;5012626;28;20077;-55
2023/07/11 03:38:21;;;;;;;5.80;1.00;;;19.00;99.90;;;;;;5012521;28;20129;-54
2023/07/11 03:40:47;;;;;;;5.45;1.38;;;19.00;99.90;;;;;;5012450;28;20029;-55
2023/07/11 03:43:12;;;;;;;6.47;1.35;;;18.90;99.90;;;;;;5012108;28;20041;-53
2023/07/11 03:45:47;;;;;;;4.38;1.20;;;18.90;99.90;;;;;;5027701;28;20018;-57
2023/07/11 03:48:17;;;;;;;6.50;1.67;;;18.90;99.90;;;;;;5031909;28;20479;-54
2023/07/11 03:50:43;;;;;;;;;;;18.90;99.90;;;;;;5032797;28;20102;-56
2023/07/11 03:53:08;;;;;;;6.13;1.55;;;18.80;99.90;;;;;;5032033;28;19971;-54
2023/07/11 03:55:34;;;;;;;3.58;1.88;;;18.80;99.90;;;;;;5032146;28;20017;-56
2023/07/11 03:58:00;;;;;;;5.80;1.35;;;18.80;99.90;;;;;;5032328;28;20220;-54
2023/07/11 04:00:26;;;;;;;6.88;1.55;;;18.80;99.90;;;;;;5031774;28;20507;-54
2023/07/11 04:02:52;;;;;;;3.70;1.08;;;18.70;99.90;;;;;;5032008;28;20037;-56
2023/07/11 04:05:17;;;;;;;6.45;1.50;;;18.80;99.90;;;;;;5032013;28;20022;-54
2023/07/11 04:07:43;;;;;;;5.68;1.70;;;18.70;99.90;;;;;;5031664;28;20033;-52
2023/07/11 04:10:12;;;;;;;3.78;1.20;;;18.70;99.90;;;;;;5031676;28;20034;-55
2023/07/11 04:12:38;;;;;;;3.38;1.08;;;18.70;99.90;;;;;;5031477;28;20041;-57
2023/07/11 04:15:04;;;;;;;5.10;1.58;;;18.70;99.90;;;;;;5031591;28;20479;-55
2023/07/11 04:17:30;;;;;;;5.95;1.45;;;18.70;99.90;;;;;;5031356;28;20033;-53
2023/07/11 04:19:55;;;;;;;8.50;1.40;;;18.70;99.90;;;;;;5030823;28;20029;-55
2023/07/11 04:22:21;;;;;;;2.22;0.95;;;18.70;99.90;;;;;;5031377;28;20513;-52
2023/07/11 04:24:47;;;;;;;4.85;1.27;;;18.70;99.90;;;;;;5029842;28;20034;-56
2023/07/11 04:27:12;;;;;;;7.57;1.52;;;18.70;99.90;;;;;;5031512;28;20104;-55
2023/07/11 04:29:38;;;;;;;7.93;1.40;;;18.60;99.90;;;;;;4998133;28;20033;-54
2023/07/11 04:32:05;;;;;;;6.53;1.33;;;18.60;99.90;;;;;;5010443;28;20022;-55
2023/07/11 04:34:30;;;;;;;4.38;1.23;;;18.50;99.90;;;;;;5011583;28;20033;-58
2023/07/11 04:36:56;;;;;;;3.28;1.00;;;18.40;99.90;;;;;;5011216;28;20018;-56
2023/07/11 04:39:22;;;;;;;7.28;1.40;;;18.30;99.90;;;;;;5011273;28;20479;-55
2023/07/11 04:41:47;;;;;;;4.25;1.50;;;18.20;99.90;;;;;;5010913;28;20018;-54
2023/07/11 04:44:13;;;;;;;3.88;1.20;;;18.20;99.90;;;;;;5011229;28;20095;-53
2023/07/11 04:46:38;;;;;;;9.02;1.88;;;18.20;99.90;;;;;;5011178;28;20093;-55
2023/07/11 04:49:04;;;;;;;4.07;1.80;;;18.20;99.90;;;;;;5011506;28;20029;-55
2023/07/11 04:51:30;;;;;;;4.20;1.17;;;18.10;99.90;;;;;;5011177;28;20022;-55
2023/07/11 04:53:55;;;;;;;3.78;1.15;;;18.10;99.90;;;;;;5030963;28;20418;-54
2023/07/11 04:56:21;;;;;;;5.35;1.30;;;18.10;99.90;;;;;;5030913;28;20053;-56
2023/07/11 04:58:47;;;;;;;7.95;1.65;;;18.10;99.90;;;;;;5030946;28;20076;-53
2023/07/11 05:01:15;;;;;;;4.65;1.30;;;18.10;99.90;;;;;;5031328;28;20029;-49
2023/07/11 05:03:41;;;;;;;5.82;1.38;;;18.10;99.90;;;;;;5030913;28;20048;-48
2023/07/11 05:06:08;;;;;;;3.00;1.70;;;18.10;99.90;;;;;;5030809;28;20010;-48
2023/07/11 05:08:33;;;;;;;5.57;1.60;;;18.00;99.90;;;;;;5030807;28;20025;-48
2023/07/11 05:10:59;;;;;;;4.65;1.00;;;18.00;99.90;;;;;;5030630;28;20028;-50
2023/07/11 05:13:25;;;;;;;3.35;1.17;;;18.00;99.90;;;;;;5030765;28;20430;-50
2023/07/11 05:15:51;;;;;;;2.30;1.38;;;18.00;99.90;;;;;;5030764;28;20394;-49
2023/07/11 05:18:18;;;;;;;7.53;1.50;;;18.00;99.90;;;;;;5030775;28;20085;-52
2023/07/11 05:20:44;;;;;;;7.22;1.77;;;18.10;99.90;;;;;;5030671;28;20018;-52
2023/07/11 05:23:10;;;;;;;6.20;1.60;;;18.10;99.90;;;;;;5030836;28;20090;-50
2023/07/11 05:25:37;;;;;;;3.17;1.13;;;18.10;99.90;;;;;;5030306;28;20360;-53
2023/07/11 05:28:03;;;;;;;4.00;1.30;;;18.20;99.90;;;;;;5030541;28;20148;-52
2023/07/11 05:30:29;;;;;;;9.65;1.33;;;18.10;99.90;;;;;;5030693;28;20017;-52
2023/07/11 05:32:55;;;;;;;3.85;1.63;;;18.10;99.90;;;;;;5030502;28;20025;-53
2023/07/11 05:35:20;;;;;;;5.22;1.50;;;18.10;99.90;;;;;;5030484;28;20045;-51
2023/07/11 05:37:46;;;;;;;2.80;1.35;;;18.10;99.90;;;;;;5030473;28;20017;-56
2023/07/11 05:40:12;;;;;;;5.93;1.35;;;18.10;99.90;;;;;;5028736;28;20105;-55
2023/07/11 05:42:37;;;;;;;9.15;1.60;;;18.10;99.90;;;;;;5017810;28;20042;-54
2023/07/11 05:45:03;;;;;;;5.70;1.50;;;18.10;99.90;;;;;;5010179;28;20048;-56
2023/07/11 05:47:29;;;;;;;4.38;1.45;;;18.10;99.90;;;;;;5003243;28;20038;-54
2023/07/11 05:49:54;;;;;;;7.75;1.50;;;18.10;99.90;;;;;;5010191;28;20098;-52
2023/07/11 05:52:20;;;;;;;5.20;1.20;;;18.10;99.90;;;;;;5015223;28;20044;-49
2023/07/11 05:54:46;;;;;;;5.57;1.25;;;18.10;99.90;;;;;;5029132;28;20021;-55
2023/07/11 05:57:11;;;;;;;3.00;1.15;;;18.10;99.90;;;;;;5012077;28;20383;-54
2023/07/11 05:59:37;;;;;;;4.47;1.08;;;18.10;99.90;;;;;;5010369;28;20092;-55
2023/07/11 06:02:03;;;;;;;1.35;0.80;;;18.10;99.90;;;;;;5010033;28;20026;-55
2023/07/11 06:04:29;;;;;;;2.88;1.40;;;18.10;99.90;;;;;;5010286;28;20038;-53
2023/07/11 06:06:54;;;;;;;3.47;1.10;;;18.10;99.90;;;;;;5009988;28;20018;-55
2023/07/11 06:09:20;;;;;;;2.08;1.00;;;18.20;99.90;;;;;;5010407;28;20456;-50
2023/07/11 06:11:48;;;;;;;3.05;0.98;;;18.20;99.90;;;;;;5010202;28;20080;-57
2023/07/11 06:14:16;;;;;;;4.15;0.98;;;18.20;99.90;;;;;;5010026;28;20050;-58
2023/07/11 06:16:43;;;;;;;1.88;0.85;;;18.20;99.90;;;;;;5010541;28;20109;-53
2023/07/11 06:19:09;;;;;;;6.82;0.73;;;18.20;99.90;;;;;;5008738;28;20029;-54
2023/07/11 06:21:34;;;;;;;2.45;1.02;;;18.20;99.90;;;;;;5009821;28;20037;-50
2023/07/11 06:24:00;;;;;;;2.95;0.80;;;18.20;99.90;;;;;;5010054;28;20037;-49
2023/07/11 06:26:26;;;;;;;1.23;0.70;;;18.20;99.90;;;;;;5010268;28;20030;-48
2023/07/11 06:28:51;;;;;;;0.45;0.35;;;18.20;99.90;;;;;;5010389;28;20030;-47
2023/07/11 06:31:17;;;;;;;2.22;0.50;;;18.20;99.90;;;;;;5009861;28;20432;-51
2023/07/11 06:33:43;;;;;;;0.88;0.50;;;18.20;99.90;;;;;;5008864;28;20068;-49
2023/07/11 06:36:09;;;;;;;0.60;0.40;;;18.20;99.90;;;;;;5009493;28;20029;-52
2023/07/11 06:38:35;;;;;;;1.45;0.88;;;18.20;99.90;;;;;;5009958;28;20080;-51
2023/07/11 06:41:02;;;;;;;0.40;0.40;;;18.30;99.90;;;;;;5010129;28;20414;-48
2023/07/11 06:43:28;;;;;;;0.70;0.50;;;18.30;99.90;;;;;;5010825;28;20038;-53
2023/07/11 06:45:56;;;;;;;2.35;0.50;;;18.40;99.90;;;;;;5013974;28;20030;-54
2023/07/11 06:48:24;;;;;;;3.05;0.63;;;18.50;99.90;;;;;;5013473;28;20402;-52
2023/07/11 06:50:52;;;;;;;2.45;0.47;;;18.70;99.90;;;;;;5013841;28;20092;-55
2023/07/11 06:53:19;;;;;;;0.93;0.50;;;18.60;99.90;;;;;;5028037;28;20047;-55
2023/07/11 06:55:51;;;;;;;2.28;0.65;;;18.70;99.90;;;;;;5033475;28;20140;-51
2023/07/11 06:58:18;;;;;;;2.15;0.50;;;18.80;99.90;;;;;;5033300;28;20569;-50
2023/07/11 07:00:44;;;;;;;0.40;0.32;;;19.20;99.90;;;;;;5024884;28;20497;-47
2023/07/11 07:03:13;;;;;;;3.30;0.68;;;19.30;99.90;;;;;;5012801;28;20038;-49
2023/07/11 07:06:09;;;;;;;0.68;0.40;;;19.30;99.90;;;;;;5012790;28;20487;-47
2023/07/11 07:08:35;;;;;;;0.30;0.22;;;19.30;99.90;;;;;;5007074;28;20521;-48
2023/07/11 07:11:01;;;;;;;1.55;0.40;;;19.30;99.90;;;;;;5012784;28;20030;-48
2023/07/11 07:13:27;;;;;;;3.10;0.50;;;19.30;99.90;;;;;;5012104;28;20073;-47
2023/07/11 07:15:56;;;;;;;1.85;0.57;;;19.30;99.90;;;;;;5011564;28;20091;-49
2023/07/11 07:18:22;;;;;;;0.57;0.30;;;19.40;99.90;;;;;;5011139;28;20057;-52
2023/07/11 07:20:50;;;;;;;2.08;0.63;;;19.40;99.90;;;;;;5010767;28;20088;-48
2023/07/11 07:23:15;;;;;;;0.38;0.38;;;19.40;99.90;;;;;;5010858;28;20161;-49
2023/07/11 07:25:49;;;;;;;1.38;0.77;;;19.30;99.90;;;;;;5010729;28;20097;-52
2023/07/11 07:28:15;;;;;;;0.40;0.40;;;19.40;99.90;;;;;;5011019;28;20026;-45
2023/07/11 07:30:48;;;;;;;2.60;0.50;;;19.50;99.90;;;;;;5011001;28;20442;-49
2023/07/11 07:33:15;;;;;;;1.40;0.57;;;19.60;99.90;;;;;;5011973;28;20071;-49
2023/07/11 07:35:41;;;;;;;0.85;0.52;;;19.70;99.90;;;;;;5002424;28;20038;-47
2023/07/11 07:38:08;;;;;;;4.60;0.70;;;20.10;99.90;;;;;;5011240;28;20021;-50
2023/07/11 07:40:34;;;;;;;0.90;0.40;;;20.50;99.90;;;;;;5012306;28;20018;-49
2023/07/11 07:42:59;;;;;;;1.90;0.65;;;20.80;99.90;;;;;;5009666;28;20049;-47
2023/07/11 07:45:25;;;;;;;1.38;0.60;;;20.80;99.90;;;;;;5011843;28;20051;-49
2023/07/11 07:47:51;;;;;;;0.63;0.52;;;20.80;99.90;;;;;;5011872;28;20042;-47
2023/07/11 07:50:16;;;;;;;0.93;0.50;;;20.60;99.90;;;;;;5012179;28;20032;-46
2023/07/11 07:52:42;;;;;;;1.15;0.52;;;20.60;99.90;;;;;;5021841;28;20022;-47
2023/07/11 07:55:08;;;;;;;1.65;0.60;;;20.80;99.90;;;;;;5030988;28;20409;-47
2023/07/11 07:57:33;;;;;;;1.95;0.80;;;21.70;99.90;;;;;;5025826;28;20056;-49
2023/07/11 07:59:59;;;;;;;2.38;0.40;;;22.80;99.90;;;;;;5013930;28;20088;-47
2023/07/11 08:02:25;;;;;;;1.70;0.60;;;23.50;99.90;;;;;;5011967;28;20054;-51
2023/07/11 08:04:50;;;;;;;1.35;0.60;;;23.70;99.90;;;;;;5012437;28;20105;-49
2023/07/11 08:07:17;;;;;;;1.13;0.60;;;23.70;99.90;;;;;;5012346;28;20475;-48
2023/07/11 08:09:43;;;;;;;0.93;0.38;;;23.90;99.90;;;;;;5012102;28;20038;-49
2023/07/11 08:12:10;;;;;;;2.20;0.68;;;24.00;99.90;;;;;;5011853;28;20022;-52
2023/07/11 08:14:40;;;;;;;2.15;0.70;;;23.80;99.90;;;;;;5011768;28;20057;-50
2023/07/11 08:17:08;;;;;;;0.60;0.40;;;23.80;99.90;;;;;;5011910;28;20018;-49
2023/07/11 08:19:34;;;;;;;1.45;0.60;;;23.60;99.90;;;;;;5011810;28;20060;-48
2023/07/11 08:22:00;;;;;;;1.10;0.50;;;23.40;99.90;;;;;;5011873;28;20514;-56
2023/07/11 08:24:26;;;;;;;4.15;0.77;;;23.10;99.90;;;;;;5011707;28;20450;-53
2023/07/11 08:26:51;;;;;;;1.83;0.73;;;23.10;99.90;;;;;;5011671;28;20022;-55
2023/07/11 08:29:18;;;;;;;2.58;0.73;;;23.00;99.90;;;;;;5010394;28;20466;-58
2023/07/11 08:31:43;;;;;;;3.55;0.90;;;22.70;99.90;;;;;;5011542;28;20117;-54
2023/07/11 08:34:09;;;;;;;2.25;0.70;;;21.20;99.90;;;;;;5011596;28;20057;-53
2023/07/11 08:36:38;;;;;;;0.98;0.52;;;22.30;99.90;;;;;;5011667;28;20026;-52
2023/07/11 08:39:05;;;;;;;1.95;0.73;;;22.50;99.90;;;;;;5011861;28;20036;-51
2023/07/11 08:41:33;;;;;;;1.02;0.45;;;22.40;99.90;;;;;;5013948;28;20034;-51
2023/07/11 08:44:04;;;;;;;1.25;0.60;;;22.40;99.90;;;;;;5015384;28;20053;-52
2023/07/11 08:46:35;;;;;;;0.88;0.43;;;22.70;99.90;;;;;;5002090;28;20513;-48
2023/07/11 08:49:03;;;;;;;1.95;0.73;;;23.10;99.90;;;;;;5011347;28;20127;-49
2023/07/11 08:51:38;;;;;;;0.90;0.45;;;24.10;99.90;;;;;;5011353;28;20104;-50
2023/07/11 08:54:15;;;;;;;1.35;0.80;;;25.00;99.90;;;;;;4998368;28;20049;-50
2023/07/11 08:56:45;;;;;;;1.08;0.50;;;25.10;99.90;;;;;;5011299;28;20495;-49
2023/07/11 08:59:19;;;;;;;2.67;0.82;;;24.90;99.90;;;;;;5013746;28;20034;-49
2023/07/11 09:02:08;;;;;;;2.50;0.70;;;24.80;99.90;;;;;;5011210;28;20065;-50
2023/07/11 09:04:43;;;;;;;2.38;0.77;;;24.80;99.90;;;;;;5010898;28;20042;-54
2023/07/11 09:07:36;;;;;;;1.95;0.40;;;24.40;99.90;;;;;;5010633;28;20109;-52
2023/07/11 09:10:02;;;;;;;2.53;0.68;;;23.80;99.90;;;;;;5010919;28;20121;-52
2023/07/11 09:13:04;;;;;;;3.72;0.68;;;23.30;99.90;;;;;;5010084;28;20100;-54
2023/07/11 09:15:41;;;;;;;0.90;0.63;;;23.10;99.90;;;;;;5009137;28;20122;-53
2023/07/11 09:18:36;;;;;;;2.33;0.65;;;22.90;99.90;;;;;;5010918;28;20018;-52
2023/07/11 09:21:20;;;;;;;1.05;0.57;;;22.80;99.90;;;;;;5010518;28;20029;-53
2023/07/11 09:24:06;;;;;;;3.40;0.65;;;22.70;99.90;;;;;;5013726;28;20051;-48
2023/07/11 09:26:37;;;;;;;1.98;0.60;;;22.90;99.90;;;;;;5030554;28;20031;-51
2023/07/11 09:29:06;;;;;;;2.42;0.73;;;23.40;99.90;;;;;;5030596;28;20021;-53
2023/07/11 09:31:51;;;;;;;3.35;1.02;;;23.10;99.90;;;;;;5030586;28;20053;-53
2023/07/11 09:34:24;;;;;;;1.88;0.60;;;23.10;99.90;;;;;;5030621;28;20022;-54
2023/07/11 09:36:51;;;;;;;3.42;0.90;;;23.10;99.90;;;;;;5030530;28;20029;-51
2023/07/11 09:39:23;;;;;;;6.47;0.70;;;23.00;99.90;;;;;;5030504;28;20017;-56
2023/07/11 09:42:08;;;;;;;1.33;0.60;;;22.80;99.90;;;;;;5030585;28;20038;-52
2023/07/11 09:44:34;;;;;;;1.60;0.80;;;22.80;99.90;;;;;;5019128;28;20045;-50
2023/07/11 09:47:16;;;;;;;3.95;0.70;;;22.70;99.90;;;;;;5030302;28;20093;-49
2023/07/11 09:49:44;;;;;;;3.25;1.10;;;22.70;99.90;;;;;;5030559;28;20033;-50
2023/07/11 09:52:19;;;;;;;4.40;1.30;;;22.70;99.90;;;;;;5030212;28;20423;-51
2023/07/11 09:54:46;;;;;;;1.95;0.55;;;22.90;99.90;;;;;;5030341;28;20471;-53
2023/07/11 09:57:12;;;;;;;3.05;0.88;;;23.20;99.90;;;;;;5024998;28;20490;-49
2023/07/11 09:59:42;;;;;;;2.50;1.08;;;23.50;99.90;;;;;;5009167;28;20432;-49
2023/07/11 10:02:17;;;;;;;1.80;0.70;;;23.70;99.90;;;;;;5007751;28;20080;-52
2023/07/11 10:04:45;;;;;;;1.85;0.70;;;24.20;99.90;;;;;;5010191;28;20038;-52
2023/07/11 10:07:14;;;;;;;2.47;0.90;;;24.30;99.90;;;;;;5010326;28;20026;-49
2023/07/11 10:09:46;;;;;;;1.20;0.70;;;24.40;99.90;;;;;;5010437;28;20030;-52
2023/07/11 10:12:16;;;;;;;4.63;0.63;;;24.50;99.90;;;;;;5009871;28;20380;-52
2023/07/11 10:14:44;;;;;;;2.15;1.10;;;24.30;99.90;;;;;;5009061;28;20030;-58
2023/07/11 10:17:19;;;;;;;3.03;0.97;;;24.40;99.90;;;;;;5010455;28;20033;-54
2023/07/11 10:19:49;;;;;;;3.28;1.10;;;24.40;99.90;;;;;;5002650;28;20026;-52
2023/07/11 10:22:19;;;;;;;3.92;0.82;;;24.60;99.90;;;;;;5013429;28;20425;-55
2023/07/11 10:24:45;;;;;;;2.17;0.80;;;24.80;99.90;;;;;;5014034;28;20449;-50
2023/07/11 10:27:14;;;;;;;2.83;0.75;;;25.10;99.90;;;;;;5013792;28;20028;-45
2023/07/11 10:29:51;;;;;;;3.03;0.80;;;25.60;99.90;;;;;;5014586;28;20056;-45
2023/07/11 10:32:35;;;;;;;1.15;0.63;;;26.20;99.90;;;;;;5013776;28;20087;-44
2023/07/11 10:35:05;;;;;;;2.45;1.00;;;26.40;99.90;;;;;;5009617;28;20462;-46
2023/07/11 10:37:44;;;;;;;2.33;0.70;;;25.80;99.90;;;;;;5013822;28;20040;-45
2023/07/11 10:40:28;;;;;;;4.70;0.95;;;25.40;99.90;;;;;;5013726;28;20024;-49
2023/07/11 10:43:15;;;;;;;3.28;1.00;;;25.40;99.90;;;;;;5013828;28;20065;-51
2023/07/11 10:45:44;;;;;;;5.70;1.17;;;24.90;99.90;;;;;;5005742;28;20080;-53
2023/07/11 10:48:32;;;;;;;4.10;0.88;;;24.90;99.90;;;;;;5013613;28;20049;-53
2023/07/11 10:51:05;;;;;;;4.28;0.70;;;24.60;99.90;;;;;;5007242;28;20076;-50
2023/07/11 10:53:42;;;;;;;2.58;0.70;;;24.60;99.90;;;;;;5029965;28;20030;-48
2023/07/11 10:56:19;;;;;;;1.48;0.82;;;24.50;99.90;;;;;;5033315;28;20056;-48
2023/07/11 10:58:45;;;;;;;1.77;0.70;;;24.60;99.90;;;;;;5033187;28;20478;-59
2023/07/11 11:01:30;;;;;;;4.03;0.90;;;24.60;99.90;;;;;;5033462;28;20108;-52
2023/07/11 11:04:20;;;;;;;3.60;1.13;;;24.90;99.90;;;;;;5033184;28;20065;-51
2023/07/11 11:06:57;;;;;;;4.95;0.95;;;25.60;99.90;;;;;;5033269;28;20037;-46
2023/07/11 11:09:35;;;;;;;1.70;0.70;;;25.80;99.90;;;;;;5032049;28;20017;-49
2023/07/11 11:12:16;;;;;;;2.53;1.05;;;25.80;99.90;;;;;;5018892;28;20505;-48
2023/07/11 11:14:51;;;;;;;2.78;0.90;;;25.90;99.90;;;;;;5011400;28;20053;-51
2023/07/11 11:17:38;;;;;;;4.60;1.05;;;26.20;99.90;;;;;;5006849;28;20072;-50
2023/07/11 11:20:30;;;;;;;3.28;0.90;;;26.50;99.90;;;;;;5013222;28;20026;-53
2023/07/11 11:23:05;;;;;;;2.05;0.80;;;26.40;99.90;;;;;;5012915;28;20048;-51
2023/07/11 11:25:31;;;;;;;1.55;0.70;;;25.90;99.90;;;;;;5012642;28;20057;-54
2023/07/11 11:28:12;;;;;;;3.30;1.05;;;25.50;99.90;;;;;;5012937;28;20060;-54
2023/07/11 11:30:49;;;;;;;1.50;0.77;;;24.90;99.90;;;;;;5012724;28;20041;-50
2023/07/11 11:33:48;;;;;;;4.50;1.13;;;24.70;99.90;;;;;;5001788;28;20071;-47
2023/07/11 11:36:29;;;;;;;2.42;0.90;;;24.60;99.90;;;;;;5012883;28;20052;-54
2023/07/11 11:39:02;;;;;;;3.60;1.13;;;24.50;99.90;;;;;;5012564;28;20568;-54
2023/07/11 11:41:39;;;;;;;1.95;0.70;;;24.50;99.90;;;;;;5012625;28;20037;-51
2023/07/11 11:44:17;;;;;;;1.55;0.73;;;24.50;99.90;;;;;;5012514;28;20041;-49
2023/07/11 11:46:44;;;;;;;5.67;1.10;;;24.30;99.90;;;;;;5012684;28;20116;-52
2023/07/11 11:49:12;;;;;;;3.28;0.90;;;24.30;99.90;;;;;;5012615;28;20467;-54
2023/07/11 11:51:38;;;;;;;2.25;0.73;;;24.40;99.90;;;;;;5013302;28;20018;-49
2023/07/11 11:54:17;;;;;;;5.63;1.23;;;24.60;99.90;;;;;;5032215;28;20029;-58
2023/07/11 11:56:47;;;;;;;3.05;1.17;;;25.10;99.90;;;;;;5032158;28;20021;-48
2023/07/11 11:59:18;;;;;;;3.40;0.85;;;25.40;99.90;;;;;;5032271;28;20029;-54
2023/07/11 12:01:55;;;;;;;3.50;1.00;;;25.40;99.90;;;;;;5014981;28;20169;-57
2023/07/11 12:04:27;;;;;;;5.35;1.08;;;25.50;99.90;;;;;;5007211;28;20037;-47
2023/07/11 12:07:01;;;;;;;3.17;1.05;;;25.40;99.90;;;;;;5011720;28;20645;-47
2023/07/11 12:09:52;;;;;;;2.42;1.05;;;25.20;99.90;;;;;;5003317;28;20036;-45
2023/07/11 12:12:21;;;;;;;2.45;1.17;;;25.50;99.90;;;;;;5011532;28;20038;-50
2023/07/11 12:14:50;;;;;;;4.05;1.27;;;25.50;99.90;;;;;;5011279;28;20042;-52
2023/07/11 12:17:29;;;;;;;3.45;1.08;;;25.40;99.90;;;;;;5010915;28;20022;-55
2023/07/11 12:20:01;;;;;;;3.58;1.05;;;25.50;99.90;;;;;;5011360;28;20045;-53
2023/07/11 12:22:52;;;;;;;1.85;1.00;;;25.50;99.90;;;;;;5010719;28;20064;-52
2023/07/11 12:25:23;;;;;;;2.05;0.85;;;25.80;99.90;;;;;;5011019;28;20034;-51
2023/07/11 12:28:01;;;;;;;1.92;0.77;;;25.60;99.90;;;;;;5010450;28;20394;-53
2023/07/11 12:30:26;;;;;;;3.33;1.00;;;25.60;99.90;;;;;;5008945;28;20387;-50
2023/07/11 12:32:56;;;;;;;1.55;0.90;;;25.50;99.90;;;;;;5010528;28;20079;-53
2023/07/11 12:35:33;;;;;;;1.95;0.95;;;25.50;99.90;;;;;;5010597;28;20593;-51
2023/07/11 12:38:02;;;;;;;1.17;0.70;;;25.20;99.90;;;;;;5010705;28;20022;-46
2023/07/11 12:40:45;;;;;;;3.30;1.30;;;25.10;99.90;;;;;;5009295;28;20088;-51
2023/07/11 12:43:22;;;;;;;6.07;1.30;;;25.10;99.90;;;;;;5010385;28;20038;-45
2023/07/11 12:45:54;;;;;;;3.20;0.95;;;25.10;99.90;;;;;;5010426;28;20204;-44
2023/07/11 12:48:36;;;;;;;3.30;0.98;;;25.40;99.90;;;;;;5010438;28;20069;-46
2023/07/11 12:51:23;;;;;;;3.53;0.93;;;25.60;99.90;;;;;;5003629;28;20072;-51
2023/07/11 12:53:55;;;;;;;2.53;1.05;;;25.60;99.90;;;;;;5025804;28;20027;-47
2023/07/11 12:56:21;;;;;;;3.15;1.45;;;25.40;99.90;;;;;;5010245;28;20442;-48
2023/07/11 12:58:48;;;;;;;6.03;1.20;;;25.20;99.90;;;;;;5008941;28;20014;-53